sensor_id;sensor_type;location;lat;lon;timestamp;P1;durP1;ratioP1;P2;durP2;ratioP2
39554;SDS011;25231;48.746;9.234;2023-03-14T00:00:18;3.20;;;3.10;;
39554;SDS011;25231;48.746;9.234;2023-03-14T00:02:43;4.70;;;4.50;;
39554;SDS011;25231;48.746;9.234;2023-03-14T00:05:16;3.27;;;3.17;;
39554;SDS011;25231;48.746;9.234;2023-03-14T00:07:41;4.53;;;4.33;;
39554;SDS011;25231;48.746;9.234;2023-03-14T00:10:09;3.43;;;3.13;;
39554;SDS011;25231;48.746;9.234;2023-03-14T00:12:37;3.63;;;3.43;;
39554;SDS011;25231;48.746;9.234;2023-03-14T00:15:04;5.20;;;4.80;;
39554;SDS011;25231;48.746;9.234;2023-03-14T00:17:31;4.27;;;4.07;;
39554;SDS011;25231;48.746;9.234;2023-03-14T00:19:58;3.37;;;3.17;;
39554;SDS011;25231;48.746;9.234;2023-03-14T00:22:33;3.30;;;3.10;;
39554;SDS011;25231;48.746;9.234;2023-03-14T00:24:59;3.73;;;3.53;;
39554;SDS011;25231;48.746;9.234;2023-03-14T00:27:25;4.40;;;4.20;;
39554;SDS011;25231;48.746;9.234;2023-03-14T00:29:50;4.07;;;3.87;;
39554;SDS011;25231;48.746;9.234;2023-03-14T00:32:16;4.77;;;4.47;;
39554;SDS011;25231;48.746;9.234;2023-03-14T00:34:41;4.43;;;4.23;;
39554;SDS011;25231;48.746;9.234;2023-03-14T00:37:07;4.23;;;3.93;;
39554;SDS011;25231;48.746;9.234;2023-03-14T00:39:32;3.47;;;3.27;;
39554;SDS011;25231;48.746;9.234;2023-03-14T00:41:57;4.23;;;4.03;;
39554;SDS011;25231;48.746;9.234;2023-03-14T00:44:23;3.77;;;3.53;;
39554;SDS011;25231;48.746;9.234;2023-03-14T00:46:48;4.00;;;3.70;;
39554;SDS011;25231;48.746;9.234;2023-03-14T00:49:14;3.90;;;3.70;;
39554;SDS011;25231;48.746;9.234;2023-03-14T00:51:39;3.23;;;3.13;;
39554;SDS011;25231;48.746;9.234;2023-03-14T00:54:05;4.87;;;4.67;;
39554;SDS011;25231;48.746;9.234;2023-03-14T00:56:30;4.70;;;4.50;;
39554;SDS011;25231;48.746;9.234;2023-03-14T00:58:56;4.73;;;4.43;;
39554;SDS011;25231;48.746;9.234;2023-03-14T01:01:22;5.00;;;4.70;;
39554;SDS011;25231;48.746;9.234;2023-03-14T01:03:50;5.77;;;5.23;;
39554;SDS011;25231;48.746;9.234;2023-03-14T01:06:18;4.37;;;4.17;;
39554;SDS011;25231;48.746;9.234;2023-03-14T01:08:46;3.50;;;3.40;;
39554;SDS011;25231;48.746;9.234;2023-03-14T01:11:13;3.10;;;2.90;;
39554;SDS011;25231;48.746;9.234;2023-03-14T01:13:41;3.17;;;3.07;;
39554;SDS011;25231;48.746;9.234;2023-03-14T01:16:08;3.33;;;3.23;;
39554;SDS011;25231;48.746;9.234;2023-03-14T01:18:35;3.60;;;3.50;;
39554;SDS011;25231;48.746;9.234;2023-03-14T01:21:02;2.47;;;2.47;;
39554;SDS011;25231;48.746;9.234;2023-03-14T01:23:29;2.30;;;2.30;;
39554;SDS011;25231;48.746;9.234;2023-03-14T01:25:55;3.03;;;2.90;;
39554;SDS011;25231;48.746;9.234;2023-03-14T01:28:20;2.60;;;2.50;;
39554;SDS011;25231;48.746;9.234;2023-03-14T01:30:45;2.77;;;2.67;;
39554;SDS011;25231;48.746;9.234;2023-03-14T01:33:11;3.00;;;2.90;;
39554;SDS011;25231;48.746;9.234;2023-03-14T01:35:38;2.90;;;2.80;;
39554;SDS011;25231;48.746;9.234;2023-03-14T01:38:03;3.07;;;2.90;;
39554;SDS011;25231;48.746;9.234;2023-03-14T01:40:29;2.70;;;2.60;;
39554;SDS011;25231;48.746;9.234;2023-03-14T01:42:58;2.87;;;2.77;;
39554;SDS011;25231;48.746;9.234;2023-03-14T01:48:39;2.43;;;2.33;;
39554;SDS011;25231;48.746;9.234;2023-03-14T01:51:10;2.73;;;2.63;;
39554;SDS011;25231;48.746;9.234;2023-03-14T01:53:39;3.00;;;2.90;;
39554;SDS011;25231;48.746;9.234;2023-03-14T01:56:07;2.87;;;2.77;;
39554;SDS011;25231;48.746;9.234;2023-03-14T01:58:35;2.97;;;2.80;;
39554;SDS011;25231;48.746;9.234;2023-03-14T02:01:02;3.03;;;2.90;;
39554;SDS011;25231;48.746;9.234;2023-03-14T02:03:29;2.70;;;2.60;;
39554;SDS011;25231;48.746;9.234;2023-03-14T02:05:59;2.77;;;2.67;;
39554;SDS011;25231;48.746;9.234;2023-03-14T02:08:31;2.37;;;2.27;;
39554;SDS011;25231;48.746;9.234;2023-03-14T02:10:58;3.07;;;2.87;;
39554;SDS011;25231;48.746;9.234;2023-03-14T02:13:23;2.80;;;2.70;;
39554;SDS011;25231;48.746;9.234;2023-03-14T02:15:49;2.70;;;2.60;;
39554;SDS011;25231;48.746;9.234;2023-03-14T02:18:15;2.53;;;2.43;;
39554;SDS011;25231;48.746;9.234;2023-03-14T02:23:26;2.63;;;2.53;;
39554;SDS011;25231;48.746;9.234;2023-03-14T02:25:59;2.60;;;2.40;;
39554;SDS011;25231;48.746;9.234;2023-03-14T02:28:29;3.33;;;2.67;;
39554;SDS011;25231;48.746;9.234;2023-03-14T02:30:55;3.50;;;3.30;;
39554;SDS011;25231;48.746;9.234;2023-03-14T02:33:20;2.30;;;2.30;;
39554;SDS011;25231;48.746;9.234;2023-03-14T02:35:50;2.90;;;2.80;;
39554;SDS011;25231;48.746;9.234;2023-03-14T02:40:54;3.03;;;2.93;;
39554;SDS011;25231;48.746;9.234;2023-03-14T02:43:19;2.50;;;2.40;;
39554;SDS011;25231;48.746;9.234;2023-03-14T02:45:45;2.53;;;2.43;;
39554;SDS011;25231;48.746;9.234;2023-03-14T02:48:19;2.77;;;2.67;;
39554;SDS011;25231;48.746;9.234;2023-03-14T02:50:47;2.30;;;2.30;;
39554;SDS011;25231;48.746;9.234;2023-03-14T02:53:16;2.53;;;2.53;;
39554;SDS011;25231;48.746;9.234;2023-03-14T02:55:45;2.80;;;2.70;;
39554;SDS011;25231;48.746;9.234;2023-03-14T02:58:11;3.33;;;3.23;;
39554;SDS011;25231;48.746;9.234;2023-03-14T03:00:37;3.10;;;3.00;;
39554;SDS011;25231;48.746;9.234;2023-03-14T03:03:02;3.10;;;3.00;;
39554;SDS011;25231;48.746;9.234;2023-03-14T03:05:28;2.57;;;2.50;;
39554;SDS011;25231;48.746;9.234;2023-03-14T03:07:53;3.03;;;2.93;;
39554;SDS011;25231;48.746;9.234;2023-03-14T03:10:18;3.17;;;2.87;;
39554;SDS011;25231;48.746;9.234;2023-03-14T03:12:44;2.47;;;2.37;;
39554;SDS011;25231;48.746;9.234;2023-03-14T03:15:09;2.67;;;2.57;;
39554;SDS011;25231;48.746;9.234;2023-03-14T03:17:35;2.70;;;2.60;;
39554;SDS011;25231;48.746;9.234;2023-03-14T03:20:00;2.70;;;2.60;;
39554;SDS011;25231;48.746;9.234;2023-03-14T03:22:26;3.17;;;3.07;;
39554;SDS011;25231;48.746;9.234;2023-03-14T03:24:51;2.70;;;2.60;;
39554;SDS011;25231;48.746;9.234;2023-03-14T03:27:16;5.87;;;3.57;;
39554;SDS011;25231;48.746;9.234;2023-03-14T03:29:42;3.33;;;3.23;;
39554;SDS011;25231;48.746;9.234;2023-03-14T03:32:07;3.83;;;3.37;;
39554;SDS011;25231;48.746;9.234;2023-03-14T03:34:33;5.80;;;5.47;;
39554;SDS011;25231;48.746;9.234;2023-03-14T03:36:58;4.13;;;4.00;;
39554;SDS011;25231;48.746;9.234;2023-03-14T03:39:24;3.20;;;3.10;;
39554;SDS011;25231;48.746;9.234;2023-03-14T03:41:49;4.93;;;4.73;;
39554;SDS011;25231;48.746;9.234;2023-03-14T03:44:14;3.80;;;3.53;;
39554;SDS011;25231;48.746;9.234;2023-03-14T03:46:40;5.70;;;5.40;;
39554;SDS011;25231;48.746;9.234;2023-03-14T03:49:05;3.27;;;3.10;;
39554;SDS011;25231;48.746;9.234;2023-03-14T03:51:31;3.40;;;3.20;;
39554;SDS011;25231;48.746;9.234;2023-03-14T03:53:56;2.93;;;2.73;;
39554;SDS011;25231;48.746;9.234;2023-03-14T03:56:22;2.83;;;2.70;;
39554;SDS011;25231;48.746;9.234;2023-03-14T03:58:47;3.17;;;2.93;;
39554;SDS011;25231;48.746;9.234;2023-03-14T04:01:13;3.30;;;3.07;;
39554;SDS011;25231;48.746;9.234;2023-03-14T04:03:38;3.23;;;3.10;;
39554;SDS011;25231;48.746;9.234;2023-03-14T04:06:10;4.90;;;4.60;;
39554;SDS011;25231;48.746;9.234;2023-03-14T04:08:37;3.43;;;3.13;;
39554;SDS011;25231;48.746;9.234;2023-03-14T04:11:04;6.17;;;5.87;;
39554;SDS011;25231;48.746;9.234;2023-03-14T04:13:29;6.37;;;5.87;;
39554;SDS011;25231;48.746;9.234;2023-03-14T04:15:55;6.23;;;5.60;;
39554;SDS011;25231;48.746;9.234;2023-03-14T04:18:21;7.13;;;6.63;;
39554;SDS011;25231;48.746;9.234;2023-03-14T04:20:55;6.03;;;5.50;;
39554;SDS011;25231;48.746;9.234;2023-03-14T04:23:22;5.63;;;5.10;;
39554;SDS011;25231;48.746;9.234;2023-03-14T04:25:49;5.23;;;4.80;;
39554;SDS011;25231;48.746;9.234;2023-03-14T04:28:15;4.70;;;4.40;;
39554;SDS011;25231;48.746;9.234;2023-03-14T04:30:41;4.83;;;3.90;;
39554;SDS011;25231;48.746;9.234;2023-03-14T04:33:06;6.43;;;3.80;;
39554;SDS011;25231;48.746;9.234;2023-03-14T04:35:32;3.70;;;3.40;;
39554;SDS011;25231;48.746;9.234;2023-03-14T04:37:58;5.63;;;4.47;;
39554;SDS011;25231;48.746;9.234;2023-03-14T04:40:24;4.63;;;4.33;;
39554;SDS011;25231;48.746;9.234;2023-03-14T04:42:50;4.40;;;4.07;;
39554;SDS011;25231;48.746;9.234;2023-03-14T04:45:15;5.70;;;5.20;;
39554;SDS011;25231;48.746;9.234;2023-03-14T04:47:41;6.23;;;4.47;;
39554;SDS011;25231;48.746;9.234;2023-03-14T04:50:07;5.77;;;5.23;;
39554;SDS011;25231;48.746;9.234;2023-03-14T04:52:33;4.20;;;3.90;;
39554;SDS011;25231;48.746;9.234;2023-03-14T04:54:59;5.23;;;4.73;;
39554;SDS011;25231;48.746;9.234;2023-03-14T04:57:24;3.77;;;3.57;;
39554;SDS011;25231;48.746;9.234;2023-03-14T04:59:49;4.70;;;4.00;;
39554;SDS011;25231;48.746;9.234;2023-03-14T05:02:15;4.90;;;4.03;;
39554;SDS011;25231;48.746;9.234;2023-03-14T05:04:40;3.90;;;3.60;;
39554;SDS011;25231;48.746;9.234;2023-03-14T05:07:05;4.20;;;4.00;;
39554;SDS011;25231;48.746;9.234;2023-03-14T05:09:31;4.07;;;3.70;;
39554;SDS011;25231;48.746;9.234;2023-03-14T05:11:56;3.93;;;3.53;;
39554;SDS011;25231;48.746;9.234;2023-03-14T05:14:22;4.70;;;3.70;;
39554;SDS011;25231;48.746;9.234;2023-03-14T05:16:47;3.10;;;2.90;;
39554;SDS011;25231;48.746;9.234;2023-03-14T05:19:12;5.10;;;3.17;;
39554;SDS011;25231;48.746;9.234;2023-03-14T05:21:38;3.40;;;3.20;;
39554;SDS011;25231;48.746;9.234;2023-03-14T05:24:03;5.43;;;3.37;;
39554;SDS011;25231;48.746;9.234;2023-03-14T05:26:29;4.90;;;4.60;;
39554;SDS011;25231;48.746;9.234;2023-03-14T05:28:54;5.73;;;5.10;;
39554;SDS011;25231;48.746;9.234;2023-03-14T05:31:20;6.40;;;5.00;;
39554;SDS011;25231;48.746;9.234;2023-03-14T05:33:45;4.07;;;3.87;;
39554;SDS011;25231;48.746;9.234;2023-03-14T05:36:11;4.93;;;4.63;;
39554;SDS011;25231;48.746;9.234;2023-03-14T05:38:36;5.37;;;4.93;;
39554;SDS011;25231;48.746;9.234;2023-03-14T05:41:02;4.03;;;3.70;;
39554;SDS011;25231;48.746;9.234;2023-03-14T05:43:28;3.90;;;3.60;;
39554;SDS011;25231;48.746;9.234;2023-03-14T05:45:53;4.73;;;4.43;;
39554;SDS011;25231;48.746;9.234;2023-03-14T05:48:19;5.90;;;5.13;;
39554;SDS011;25231;48.746;9.234;2023-03-14T05:50:44;7.20;;;6.73;;
39554;SDS011;25231;48.746;9.234;2023-03-14T05:53:10;5.57;;;5.27;;
39554;SDS011;25231;48.746;9.234;2023-03-14T05:55:35;5.97;;;5.57;;
39554;SDS011;25231;48.746;9.234;2023-03-14T05:58:00;5.03;;;4.73;;
39554;SDS011;25231;48.746;9.234;2023-03-14T06:00:26;5.90;;;4.63;;
39554;SDS011;25231;48.746;9.234;2023-03-14T06:02:51;5.57;;;5.17;;
39554;SDS011;25231;48.746;9.234;2023-03-14T06:05:17;5.97;;;4.67;;
39554;SDS011;25231;48.746;9.234;2023-03-14T06:07:42;5.03;;;4.63;;
39554;SDS011;25231;48.746;9.234;2023-03-14T06:10:08;5.53;;;4.07;;
39554;SDS011;25231;48.746;9.234;2023-03-14T06:12:34;4.90;;;4.53;;
39554;SDS011;25231;48.746;9.234;2023-03-14T06:14:59;4.80;;;4.50;;
39554;SDS011;25231;48.746;9.234;2023-03-14T06:17:24;5.07;;;4.03;;
39554;SDS011;25231;48.746;9.234;2023-03-14T06:19:50;3.50;;;3.10;;
39554;SDS011;25231;48.746;9.234;2023-03-14T06:22:15;3.00;;;2.90;;
39554;SDS011;25231;48.746;9.234;2023-03-14T06:24:41;3.73;;;3.23;;
39554;SDS011;25231;48.746;9.234;2023-03-14T06:27:06;3.30;;;3.00;;
39554;SDS011;25231;48.746;9.234;2023-03-14T06:29:32;3.67;;;3.37;;
39554;SDS011;25231;48.746;9.234;2023-03-14T06:31:57;3.90;;;3.57;;
39554;SDS011;25231;48.746;9.234;2023-03-14T06:34:23;6.63;;;3.40;;
39554;SDS011;25231;48.746;9.234;2023-03-14T06:36:48;4.07;;;3.70;;
39554;SDS011;25231;48.746;9.234;2023-03-14T06:39:13;4.20;;;3.30;;
39554;SDS011;25231;48.746;9.234;2023-03-14T06:41:39;3.80;;;3.40;;
39554;SDS011;25231;48.746;9.234;2023-03-14T06:44:04;3.10;;;3.00;;
39554;SDS011;25231;48.746;9.234;2023-03-14T06:46:30;2.90;;;2.70;;
39554;SDS011;25231;48.746;9.234;2023-03-14T06:48:55;3.40;;;3.10;;
39554;SDS011;25231;48.746;9.234;2023-03-14T06:51:21;3.20;;;2.70;;
39554;SDS011;25231;48.746;9.234;2023-03-14T06:53:47;4.27;;;3.40;;
39554;SDS011;25231;48.746;9.234;2023-03-14T06:56:12;3.57;;;3.37;;
39554;SDS011;25231;48.746;9.234;2023-03-14T06:58:38;4.07;;;3.77;;
39554;SDS011;25231;48.746;9.234;2023-03-14T07:01:03;4.10;;;3.90;;
39554;SDS011;25231;48.746;9.234;2023-03-14T07:03:29;6.73;;;4.50;;
39554;SDS011;25231;48.746;9.234;2023-03-14T07:05:54;3.83;;;3.63;;
39554;SDS011;25231;48.746;9.234;2023-03-14T07:08:20;10.63;;;4.80;;
39554;SDS011;25231;48.746;9.234;2023-03-14T07:10:45;4.43;;;4.17;;
39554;SDS011;25231;48.746;9.234;2023-03-14T07:13:11;3.53;;;3.33;;
39554;SDS011;25231;48.746;9.234;2023-03-14T07:15:36;3.90;;;3.50;;
39554;SDS011;25231;48.746;9.234;2023-03-14T07:18:02;3.67;;;3.37;;
39554;SDS011;25231;48.746;9.234;2023-03-14T07:20:28;3.17;;;2.97;;
39554;SDS011;25231;48.746;9.234;2023-03-14T07:22:54;5.33;;;5.03;;
39554;SDS011;25231;48.746;9.234;2023-03-14T07:25:20;3.30;;;3.10;;
39554;SDS011;25231;48.746;9.234;2023-03-14T07:27:45;2.90;;;2.80;;
39554;SDS011;25231;48.746;9.234;2023-03-14T07:30:13;4.27;;;3.97;;
39554;SDS011;25231;48.746;9.234;2023-03-14T07:32:38;3.50;;;3.30;;
39554;SDS011;25231;48.746;9.234;2023-03-14T07:35:04;5.60;;;4.07;;
39554;SDS011;25231;48.746;9.234;2023-03-14T07:37:30;4.10;;;3.87;;
39554;SDS011;25231;48.746;9.234;2023-03-14T07:39:56;3.30;;;3.10;;
39554;SDS011;25231;48.746;9.234;2023-03-14T07:42:21;4.20;;;3.90;;
39554;SDS011;25231;48.746;9.234;2023-03-14T07:44:46;3.87;;;3.67;;
39554;SDS011;25231;48.746;9.234;2023-03-14T07:47:12;8.47;;;8.10;;
39554;SDS011;25231;48.746;9.234;2023-03-14T07:49:37;9.13;;;8.63;;
39554;SDS011;25231;48.746;9.234;2023-03-14T07:52:03;5.00;;;4.53;;
39554;SDS011;25231;48.746;9.234;2023-03-14T07:54:28;3.00;;;2.90;;
39554;SDS011;25231;48.746;9.234;2023-03-14T07:56:54;3.57;;;3.37;;
39554;SDS011;25231;48.746;9.234;2023-03-14T07:59:19;3.13;;;3.03;;
39554;SDS011;25231;48.746;9.234;2023-03-14T08:01:45;4.63;;;4.43;;
39554;SDS011;25231;48.746;9.234;2023-03-14T08:04:11;3.70;;;3.40;;
39554;SDS011;25231;48.746;9.234;2023-03-14T08:06:36;4.30;;;3.90;;
39554;SDS011;25231;48.746;9.234;2023-03-14T08:09:02;3.90;;;3.70;;
39554;SDS011;25231;48.746;9.234;2023-03-14T08:11:29;5.80;;;5.30;;
39554;SDS011;25231;48.746;9.234;2023-03-14T08:13:54;5.30;;;5.10;;
39554;SDS011;25231;48.746;9.234;2023-03-14T08:16:20;4.70;;;4.40;;
39554;SDS011;25231;48.746;9.234;2023-03-14T08:18:46;4.87;;;4.47;;
39554;SDS011;25231;48.746;9.234;2023-03-14T08:21:12;4.17;;;3.87;;
39554;SDS011;25231;48.746;9.234;2023-03-14T08:23:38;5.80;;;5.47;;
39554;SDS011;25231;48.746;9.234;2023-03-14T08:26:03;7.90;;;7.50;;
39554;SDS011;25231;48.746;9.234;2023-03-14T08:28:29;6.20;;;5.57;;
39554;SDS011;25231;48.746;9.234;2023-03-14T08:30:57;4.83;;;4.57;;
39554;SDS011;25231;48.746;9.234;2023-03-14T08:33:23;4.30;;;4.10;;
39554;SDS011;25231;48.746;9.234;2023-03-14T08:35:51;5.43;;;5.10;;
39554;SDS011;25231;48.746;9.234;2023-03-14T08:38:18;4.30;;;4.00;;
39554;SDS011;25231;48.746;9.234;2023-03-14T08:40:43;4.53;;;4.33;;
39554;SDS011;25231;48.746;9.234;2023-03-14T08:43:09;6.50;;;6.10;;
39554;SDS011;25231;48.746;9.234;2023-03-14T08:45:34;22.47;;;21.30;;
39554;SDS011;25231;48.746;9.234;2023-03-14T08:47:59;27.80;;;26.40;;
39554;SDS011;25231;48.746;9.234;2023-03-14T08:50:25;16.63;;;15.87;;
39554;SDS011;25231;48.746;9.234;2023-03-14T08:52:50;11.33;;;10.83;;
39554;SDS011;25231;48.746;9.234;2023-03-14T08:55:16;6.20;;;5.70;;
39554;SDS011;25231;48.746;9.234;2023-03-14T08:57:42;7.10;;;6.70;;
39554;SDS011;25231;48.746;9.234;2023-03-14T09:00:07;9.00;;;8.60;;
39554;SDS011;25231;48.746;9.234;2023-03-14T09:02:39;11.53;;;6.10;;
39554;SDS011;25231;48.746;9.234;2023-03-14T09:05:05;5.23;;;4.97;;
39554;SDS011;25231;48.746;9.234;2023-03-14T09:07:30;4.50;;;4.30;;
39554;SDS011;25231;48.746;9.234;2023-03-14T09:09:56;4.30;;;4.13;;
39554;SDS011;25231;48.746;9.234;2023-03-14T09:12:21;6.70;;;6.40;;
39554;SDS011;25231;48.746;9.234;2023-03-14T09:14:47;9.50;;;9.10;;
39554;SDS011;25231;48.746;9.234;2023-03-14T09:17:12;25.77;;;24.43;;
39554;SDS011;25231;48.746;9.234;2023-03-14T09:19:38;15.93;;;15.20;;
39554;SDS011;25231;48.746;9.234;2023-03-14T09:22:03;10.77;;;10.17;;
39554;SDS011;25231;48.746;9.234;2023-03-14T09:24:28;13.30;;;12.63;;
39554;SDS011;25231;48.746;9.234;2023-03-14T09:26:54;9.27;;;8.87;;
39554;SDS011;25231;48.746;9.234;2023-03-14T09:29:21;2.70;;;2.60;;
39554;SDS011;25231;48.746;9.234;2023-03-14T09:31:47;3.53;;;3.33;;
39554;SDS011;25231;48.746;9.234;2023-03-14T09:34:12;8.67;;;8.13;;
39554;SDS011;25231;48.746;9.234;2023-03-14T09:36:38;14.00;;;13.20;;
39554;SDS011;25231;48.746;9.234;2023-03-14T09:39:04;18.60;;;17.70;;
39554;SDS011;25231;48.746;9.234;2023-03-14T09:41:34;26.77;;;25.40;;
39554;SDS011;25231;48.746;9.234;2023-03-14T09:46:35;21.03;;;19.97;;
39554;SDS011;25231;48.746;9.234;2023-03-14T09:49:08;17.97;;;17.10;;
39554;SDS011;25231;48.746;9.234;2023-03-14T09:51:37;9.87;;;9.37;;
39554;SDS011;25231;48.746;9.234;2023-03-14T09:54:02;9.97;;;9.37;;
39554;SDS011;25231;48.746;9.234;2023-03-14T09:56:31;14.90;;;14.17;;
39554;SDS011;25231;48.746;9.234;2023-03-14T09:58:59;35.07;;;33.20;;
39554;SDS011;25231;48.746;9.234;2023-03-14T10:01:28;29.23;;;27.77;;
39554;SDS011;25231;48.746;9.234;2023-03-14T10:03:56;25.67;;;24.37;;
39554;SDS011;25231;48.746;9.234;2023-03-14T10:06:27;28.80;;;27.37;;
39554;SDS011;25231;48.746;9.234;2023-03-14T10:08:54;20.73;;;19.70;;
39554;SDS011;25231;48.746;9.234;2023-03-14T10:11:21;22.63;;;21.10;;
39554;SDS011;25231;48.746;9.234;2023-03-14T10:14:04;27.43;;;26.07;;
39554;SDS011;25231;48.746;9.234;2023-03-14T10:16:37;29.17;;;27.70;;
39554;SDS011;25231;48.746;9.234;2023-03-14T10:19:09;18.20;;;17.30;;
39554;SDS011;25231;48.746;9.234;2023-03-14T10:21:38;13.97;;;13.20;;
39554;SDS011;25231;48.746;9.234;2023-03-14T10:24:49;2.90;;;2.80;;
39554;SDS011;25231;48.746;9.234;2023-03-14T10:27:00;4.00;;;3.83;;
39554;SDS011;25231;48.746;9.234;2023-03-14T10:29:28;3.37;;;3.17;;
39554;SDS011;25231;48.746;9.234;2023-03-14T10:31:58;10.33;;;9.80;;
39554;SDS011;25231;48.746;9.234;2023-03-14T10:34:35;28.90;;;27.43;;
39554;SDS011;25231;48.746;9.234;2023-03-14T10:37:07;27.30;;;25.80;;
39554;SDS011;25231;48.746;9.234;2023-03-14T10:39:46;24.93;;;23.57;;
39554;SDS011;25231;48.746;9.234;2023-03-14T10:42:29;21.80;;;20.67;;
39554;SDS011;25231;48.746;9.234;2023-03-14T10:45:00;74.27;;;70.47;;
39554;SDS011;25231;48.746;9.234;2023-03-14T10:47:28;59.77;;;56.70;;
39554;SDS011;25231;48.746;9.234;2023-03-14T10:49:55;51.87;;;49.20;;
39554;SDS011;25231;48.746;9.234;2023-03-14T10:52:28;28.20;;;26.83;;
39554;SDS011;25231;48.746;9.234;2023-03-14T10:55:10;33.10;;;31.30;;
39554;SDS011;25231;48.746;9.234;2023-03-14T10:57:43;57.73;;;54.87;;
39554;SDS011;25231;48.746;9.234;2023-03-14T11:00:16;8.07;;;7.77;;
39554;SDS011;25231;48.746;9.234;2023-03-14T11:05:18;17.27;;;16.43;;
39554;SDS011;25231;48.746;9.234;2023-03-14T11:07:56;3.57;;;3.37;;
39554;SDS011;25231;48.746;9.234;2023-03-14T11:10:34;17.33;;;16.20;;
39554;SDS011;25231;48.746;9.234;2023-03-14T11:26:51;46.07;;;43.73;;
39554;SDS011;25231;48.746;9.234;2023-03-14T11:31:55;5.67;;;5.47;;
39554;SDS011;25231;48.746;9.234;2023-03-14T11:34:28;4.63;;;4.43;;
39554;SDS011;25231;48.746;9.234;2023-03-14T11:37:14;2.80;;;2.70;;
39554;SDS011;25231;48.746;9.234;2023-03-14T11:39:51;2.40;;;2.30;;
39554;SDS011;25231;48.746;9.234;2023-03-14T11:42:31;2.57;;;2.47;;
39554;SDS011;25231;48.746;9.234;2023-03-14T11:44:58;2.63;;;2.53;;
39554;SDS011;25231;48.746;9.234;2023-03-14T11:47:26;2.40;;;2.30;;
39554;SDS011;25231;48.746;9.234;2023-03-14T11:49:58;4.07;;;3.93;;
39554;SDS011;25231;48.746;9.234;2023-03-14T11:52:33;9.43;;;9.03;;
39554;SDS011;25231;48.746;9.234;2023-03-14T11:55:44;10.90;;;10.40;;
39554;SDS011;25231;48.746;9.234;2023-03-14T11:57:53;11.40;;;10.83;;
39554;SDS011;25231;48.746;9.234;2023-03-14T12:00:24;4.40;;;4.23;;
39554;SDS011;25231;48.746;9.234;2023-03-14T12:08:49;13.07;;;12.43;;
39554;SDS011;25231;48.746;9.234;2023-03-14T12:11:19;3.13;;;3.03;;
39554;SDS011;25231;48.746;9.234;2023-03-14T12:13:56;2.23;;;2.13;;
39554;SDS011;25231;48.746;9.234;2023-03-14T12:18:47;2.97;;;2.73;;
39554;SDS011;25231;48.746;9.234;2023-03-14T12:21:13;9.03;;;8.63;;
39554;SDS011;25231;48.746;9.234;2023-03-14T12:23:43;4.03;;;3.83;;
39554;SDS011;25231;48.746;9.234;2023-03-14T12:26:27;19.13;;;18.23;;
39554;SDS011;25231;48.746;9.234;2023-03-14T12:29:16;6.23;;;6.03;;
39554;SDS011;25231;48.746;9.234;2023-03-14T12:31:42;17.23;;;16.43;;
39554;SDS011;25231;48.746;9.234;2023-03-14T12:42:12;15.37;;;14.67;;
39554;SDS011;25231;48.746;9.234;2023-03-14T12:49:45;14.53;;;13.83;;
39554;SDS011;25231;48.746;9.234;2023-03-14T12:57:26;22.03;;;20.87;;
39554;SDS011;25231;48.746;9.234;2023-03-14T12:59:58;15.00;;;14.30;;
39554;SDS011;25231;48.746;9.234;2023-03-14T13:02:38;7.00;;;6.67;;
39554;SDS011;25231;48.746;9.234;2023-03-14T13:05:23;6.37;;;5.97;;
39554;SDS011;25231;48.746;9.234;2023-03-14T13:13:24;7.63;;;7.23;;
39554;SDS011;25231;48.746;9.234;2023-03-14T13:15:59;6.87;;;6.53;;
39554;SDS011;25231;48.746;9.234;2023-03-14T13:21:12;4.40;;;4.20;;
39554;SDS011;25231;48.746;9.234;2023-03-14T13:23:38;3.53;;;3.40;;
39554;SDS011;25231;48.746;9.234;2023-03-14T13:26:14;4.50;;;4.20;;
39554;SDS011;25231;48.746;9.234;2023-03-14T13:28:42;5.23;;;4.93;;
39554;SDS011;25231;48.746;9.234;2023-03-14T13:31:12;4.40;;;4.07;;
39554;SDS011;25231;48.746;9.234;2023-03-14T13:33:46;4.70;;;4.40;;
39554;SDS011;25231;48.746;9.234;2023-03-14T13:36:12;4.70;;;4.30;;
39554;SDS011;25231;48.746;9.234;2023-03-14T13:38:37;3.90;;;3.57;;
39554;SDS011;25231;48.746;9.234;2023-03-14T13:41:06;3.53;;;3.37;;
39554;SDS011;25231;48.746;9.234;2023-03-14T13:43:33;4.07;;;3.87;;
39554;SDS011;25231;48.746;9.234;2023-03-14T13:48:31;4.27;;;4.07;;
39554;SDS011;25231;48.746;9.234;2023-03-14T13:51:01;3.50;;;3.40;;
39554;SDS011;25231;48.746;9.234;2023-03-14T13:53:29;4.93;;;3.70;;
39554;SDS011;25231;48.746;9.234;2023-03-14T13:55:55;3.43;;;2.93;;
39554;SDS011;25231;48.746;9.234;2023-03-14T13:58:23;3.60;;;3.40;;
39554;SDS011;25231;48.746;9.234;2023-03-14T14:01:02;2.97;;;2.77;;
39554;SDS011;25231;48.746;9.234;2023-03-14T14:03:31;3.20;;;3.00;;
39554;SDS011;25231;48.746;9.234;2023-03-14T14:05:58;2.90;;;2.80;;
39554;SDS011;25231;48.746;9.234;2023-03-14T14:08:24;2.77;;;2.50;;
39554;SDS011;25231;48.746;9.234;2023-03-14T14:10:52;3.33;;;2.53;;
39554;SDS011;25231;48.746;9.234;2023-03-14T14:13:26;3.53;;;2.93;;
39554;SDS011;25231;48.746;9.234;2023-03-14T14:15:54;14.03;;;12.80;;
39554;SDS011;25231;48.746;9.234;2023-03-14T14:18:22;9.53;;;9.07;;
39554;SDS011;25231;48.746;9.234;2023-03-14T14:20:51;12.83;;;12.23;;
39554;SDS011;25231;48.746;9.234;2023-03-14T14:23:20;10.37;;;9.73;;
39554;SDS011;25231;48.746;9.234;2023-03-14T14:25:51;7.20;;;6.90;;
39554;SDS011;25231;48.746;9.234;2023-03-14T14:28:38;6.93;;;6.53;;
39554;SDS011;25231;48.746;9.234;2023-03-14T14:31:05;11.67;;;11.13;;
39554;SDS011;25231;48.746;9.234;2023-03-14T14:33:53;7.90;;;7.57;;
39554;SDS011;25231;48.746;9.234;2023-03-14T14:39:31;3.97;;;3.70;;
39554;SDS011;25231;48.746;9.234;2023-03-14T14:41:51;3.93;;;3.73;;
39554;SDS011;25231;48.746;9.234;2023-03-14T14:44:25;3.93;;;3.73;;
39554;SDS011;25231;48.746;9.234;2023-03-14T14:46:55;4.13;;;3.07;;
39554;SDS011;25231;48.746;9.234;2023-03-14T14:49:27;3.80;;;3.50;;
39554;SDS011;25231;48.746;9.234;2023-03-14T14:51:59;3.67;;;3.47;;
39554;SDS011;25231;48.746;9.234;2023-03-14T14:54:37;3.63;;;3.47;;
39554;SDS011;25231;48.746;9.234;2023-03-14T14:57:05;3.20;;;3.00;;
39554;SDS011;25231;48.746;9.234;2023-03-14T14:59:42;3.23;;;2.80;;
39554;SDS011;25231;48.746;9.234;2023-03-14T15:02:14;3.80;;;2.83;;
39554;SDS011;25231;48.746;9.234;2023-03-14T15:05:05;5.53;;;3.20;;
39554;SDS011;25231;48.746;9.234;2023-03-14T15:07:31;6.13;;;3.27;;
39554;SDS011;25231;48.746;9.234;2023-03-14T15:09:56;3.70;;;3.37;;
39554;SDS011;25231;48.746;9.234;2023-03-14T15:12:21;3.07;;;2.87;;
39554;SDS011;25231;48.746;9.234;2023-03-14T15:14:49;3.40;;;3.20;;
39554;SDS011;25231;48.746;9.234;2023-03-14T15:17:15;4.30;;;3.20;;
39554;SDS011;25231;48.746;9.234;2023-03-14T15:19:40;4.30;;;3.90;;
39554;SDS011;25231;48.746;9.234;2023-03-14T15:22:09;2.80;;;2.70;;
39554;SDS011;25231;48.746;9.234;2023-03-14T15:24:38;3.83;;;3.20;;
39554;SDS011;25231;48.746;9.234;2023-03-14T15:27:04;2.60;;;2.50;;
39554;SDS011;25231;48.746;9.234;2023-03-14T15:29:30;5.10;;;3.07;;
39554;SDS011;25231;48.746;9.234;2023-03-14T15:31:56;5.80;;;3.60;;
39554;SDS011;25231;48.746;9.234;2023-03-14T15:34:21;3.60;;;3.33;;
39554;SDS011;25231;48.746;9.234;2023-03-14T15:36:46;4.07;;;3.20;;
39554;SDS011;25231;48.746;9.234;2023-03-14T15:39:12;3.20;;;2.90;;
39554;SDS011;25231;48.746;9.234;2023-03-14T15:41:37;3.57;;;3.30;;
39554;SDS011;25231;48.746;9.234;2023-03-14T15:44:02;3.97;;;3.10;;
39554;SDS011;25231;48.746;9.234;2023-03-14T15:46:29;6.30;;;4.23;;
39554;SDS011;25231;48.746;9.234;2023-03-14T15:48:54;4.07;;;3.00;;
39554;SDS011;25231;48.746;9.234;2023-03-14T15:51:19;3.37;;;2.97;;
39554;SDS011;25231;48.746;9.234;2023-03-14T15:53:45;4.00;;;2.90;;
39554;SDS011;25231;48.746;9.234;2023-03-14T15:56:11;3.30;;;3.00;;